sensor_id;sensor_type;location;lat;lon;timestamp;temperature;humidity
3628;DHT22;1830;49.000;12.074;2023-05-29T00:01:45;15.10;94.20
3628;DHT22;1830;49.000;12.074;2023-05-29T00:04:13;15.10;94.10
3628;DHT22;1830;49.000;12.074;2023-05-29T00:06:40;15.00;94.10
3628;DHT22;1830;49.000;12.074;2023-05-29T00:09:06;15.00;94.10
3628;DHT22;1830;49.000;12.074;2023-05-29T00:11:33;15.00;94.50
3628;DHT22;1830;49.000;12.074;2023-05-29T00:14:00;14.90;94.50
3628;DHT22;1830;49.000;12.074;2023-05-29T00:16:28;14.90;94.50
3628;DHT22;1830;49.000;12.074;2023-05-29T00:18:55;14.90;94.70
3628;DHT22;1830;49.000;12.074;2023-05-29T00:21:24;14.80;94.80
3628;DHT22;1830;49.000;12.074;2023-05-29T00:23:51;14.80;94.90
3628;DHT22;1830;49.000;12.074;2023-05-29T00:26:17;14.80;94.90
3628;DHT22;1830;49.000;12.074;2023-05-29T00:28:44;14.70;94.70
3628;DHT22;1830;49.000;12.074;2023-05-29T00:31:11;14.70;94.70
3628;DHT22;1830;49.000;12.074;2023-05-29T00:33:38;14.70;94.90
3628;DHT22;1830;49.000;12.074;2023-05-29T00:36:05;14.70;95.00
3628;DHT22;1830;49.000;12.074;2023-05-29T00:38:34;14.60;95.10
3628;DHT22;1830;49.000;12.074;2023-05-29T00:41:01;14.60;95.00
3628;DHT22;1830;49.000;12.074;2023-05-29T00:43:28;14.60;95.10
3628;DHT22;1830;49.000;12.074;2023-05-29T00:45:55;14.60;95.20
3628;DHT22;1830;49.000;12.074;2023-05-29T00:48:23;14.50;95.40
3628;DHT22;1830;49.000;12.074;2023-05-29T00:50:50;14.40;95.40
3628;DHT22;1830;49.000;12.074;2023-05-29T00:53:17;14.30;95.50
3628;DHT22;1830;49.000;12.074;2023-05-29T00:55:46;14.30;95.70
3628;DHT22;1830;49.000;12.074;2023-05-29T00:58:12;14.20;96.10
3628;DHT22;1830;49.000;12.074;2023-05-29T01:00:39;14.20;96.20
3628;DHT22;1830;49.000;12.074;2023-05-29T01:03:08;14.20;96.30
3628;DHT22;1830;49.000;12.074;2023-05-29T01:05:36;14.10;96.40
3628;DHT22;1830;49.000;12.074;2023-05-29T01:08:02;14.20;96.60
3628;DHT22;1830;49.000;12.074;2023-05-29T01:10:29;14.10;96.60
3628;DHT22;1830;49.000;12.074;2023-05-29T01:13:04;14.10;96.50
3628;DHT22;1830;49.000;12.074;2023-05-29T01:15:37;14.10;96.40
3628;DHT22;1830;49.000;12.074;2023-05-29T01:18:23;14.00;96.70
3628;DHT22;1830;49.000;12.074;2023-05-29T01:21:03;13.90;96.90
3628;DHT22;1830;49.000;12.074;2023-05-29T01:24:02;13.90;97.10
3628;DHT22;1830;49.000;12.074;2023-05-29T01:26:46;13.90;97.50
3628;DHT22;1830;49.000;12.074;2023-05-29T01:29:15;13.90;97.70
3628;DHT22;1830;49.000;12.074;2023-05-29T01:31:46;13.80;97.60
3628;DHT22;1830;49.000;12.074;2023-05-29T01:34:13;13.70;97.50
3628;DHT22;1830;49.000;12.074;2023-05-29T01:36:40;13.70;97.50
3628;DHT22;1830;49.000;12.074;2023-05-29T01:39:07;13.80;97.50
3628;DHT22;1830;49.000;12.074;2023-05-29T01:41:35;13.60;97.40
3628;DHT22;1830;49.000;12.074;2023-05-29T01:44:05;13.60;97.60
3628;DHT22;1830;49.000;12.074;2023-05-29T01:46:34;13.60;97.70
3628;DHT22;1830;49.000;12.074;2023-05-29T01:49:02;13.50;97.80
3628;DHT22;1830;49.000;12.074;2023-05-29T01:51:29;13.50;98.00
3628;DHT22;1830;49.000;12.074;2023-05-29T01:53:58;13.50;98.10
3628;DHT22;1830;49.000;12.074;2023-05-29T01:56:25;13.40;98.20
3628;DHT22;1830;49.000;12.074;2023-05-29T01:58:53;13.40;98.40
3628;DHT22;1830;49.000;12.074;2023-05-29T02:01:22;13.30;98.50
3628;DHT22;1830;49.000;12.074;2023-05-29T02:03:50;13.30;98.70
3628;DHT22;1830;49.000;12.074;2023-05-29T02:06:17;13.30;98.80
3628;DHT22;1830;49.000;12.074;2023-05-29T02:08:44;13.20;98.90
3628;DHT22;1830;49.000;12.074;2023-05-29T02:11:11;13.10;99.20
3628;DHT22;1830;49.000;12.074;2023-05-29T02:13:38;13.10;99.30
3628;DHT22;1830;49.000;12.074;2023-05-29T02:16:05;13.20;99.30
3628;DHT22;1830;49.000;12.074;2023-05-29T02:18:34;13.20;99.50
3628;DHT22;1830;49.000;12.074;2023-05-29T02:21:00;13.10;99.30
3628;DHT22;1830;49.000;12.074;2023-05-29T02:23:27;13.00;99.30
3628;DHT22;1830;49.000;12.074;2023-05-29T02:25:54;13.00;99.60
3628;DHT22;1830;49.000;12.074;2023-05-29T02:28:21;13.00;99.60
3628;DHT22;1830;49.000;12.074;2023-05-29T02:30:48;13.00;99.70
3628;DHT22;1830;49.000;12.074;2023-05-29T02:33:14;13.00;99.70
3628;DHT22;1830;49.000;12.074;2023-05-29T02:35:42;13.00;99.60
3628;DHT22;1830;49.000;12.074;2023-05-29T02:38:09;13.00;99.80
3628;DHT22;1830;49.000;12.074;2023-05-29T02:40:36;13.00;99.90
3628;DHT22;1830;49.000;12.074;2023-05-29T02:43:04;12.90;99.90
3628;DHT22;1830;49.000;12.074;2023-05-29T02:45:31;12.90;99.90
3628;DHT22;1830;49.000;12.074;2023-05-29T02:47:58;12.90;99.90
3628;DHT22;1830;49.000;12.074;2023-05-29T02:50:25;12.90;99.90
3628;DHT22;1830;49.000;12.074;2023-05-29T02:52:53;12.80;99.90
3628;DHT22;1830;49.000;12.074;2023-05-29T02:55:20;12.70;99.90
3628;DHT22;1830;49.000;12.074;2023-05-29T02:57:47;12.70;99.90
3628;DHT22;1830;49.000;12.074;2023-05-29T03:00:18;12.70;99.90
3628;DHT22;1830;49.000;12.074;2023-05-29T03:02:46;12.70;99.90
3628;DHT22;1830;49.000;12.074;2023-05-29T03:05:13;12.70;99.90
3628;DHT22;1830;49.000;12.074;2023-05-29T03:07:40;12.70;99.90
3628;DHT22;1830;49.000;12.074;2023-05-29T03:10:09;12.70;99.90
3628;DHT22;1830;49.000;12.074;2023-05-29T03:12:37;12.70;99.90
3628;DHT22;1830;49.000;12.074;2023-05-29T03:15:05;12.80;99.90
3628;DHT22;1830;49.000;12.074;2023-05-29T03:17:33;12.70;99.90
3628;DHT22;1830;49.000;12.074;2023-05-29T03:20:02;12.70;99.90
3628;DHT22;1830;49.000;12.074;2023-05-29T03:22:31;12.60;99.90
3628;DHT22;1830;49.000;12.074;2023-05-29T03:24:58;12.60;99.90
3628;DHT22;1830;49.000;12.074;2023-05-29T03:27:26;12.50;99.90
3628;DHT22;1830;49.000;12.074;2023-05-29T03:29:53;12.50;99.90
3628;DHT22;1830;49.000;12.074;2023-05-29T03:32:20;12.50;99.90
3628;DHT22;1830;49.000;12.074;2023-05-29T03:34:47;12.30;99.90
3628;DHT22;1830;49.000;12.074;2023-05-29T03:37:14;12.40;99.90
3628;DHT22;1830;49.000;12.074;2023-05-29T03:39:41;12.40;99.90
3628;DHT22;1830;49.000;12.074;2023-05-29T03:42:07;12.30;99.90
3628;DHT22;1830;49.000;12.074;2023-05-29T03:44:36;12.30;99.90
3628;DHT22;1830;49.000;12.074;2023-05-29T03:47:02;12.30;99.90
3628;DHT22;1830;49.000;12.074;2023-05-29T03:49:29;12.30;99.90
3628;DHT22;1830;49.000;12.074;2023-05-29T03:51:56;12.30;99.90
3628;DHT22;1830;49.000;12.074;2023-05-29T03:54:23;12.30;99.90
3628;DHT22;1830;49.000;12.074;2023-05-29T03:56:50;12.40;99.90
3628;DHT22;1830;49.000;12.074;2023-05-29T03:59:16;12.40;99.90
3628;DHT22;1830;49.000;12.074;2023-05-29T04:01:45;12.30;99.90
3628;DHT22;1830;49.000;12.074;2023-05-29T04:04:11;12.40;99.90
3628;DHT22;1830;49.000;12.074;2023-05-29T04:06:38;12.30;99.90
3628;DHT22;1830;49.000;12.074;2023-05-29T04:09:05;12.40;99.90
3628;DHT22;1830;49.000;12.074;2023-05-29T04:11:33;12.40;99.90
3628;DHT22;1830;49.000;12.074;2023-05-29T04:14:01;12.50;99.90
3628;DHT22;1830;49.000;12.074;2023-05-29T04:16:28;12.50;99.90
3628;DHT22;1830;49.000;12.074;2023-05-29T04:18:56;12.50;99.90
3628;DHT22;1830;49.000;12.074;2023-05-29T04:21:23;12.50;99.90
3628;DHT22;1830;49.000;12.074;2023-05-29T04:23:50;12.50;99.90
3628;DHT22;1830;49.000;12.074;2023-05-29T04:26:17;12.50;99.90
3628;DHT22;1830;49.000;12.074;2023-05-29T04:28:44;12.50;99.90
3628;DHT22;1830;49.000;12.074;2023-05-29T04:31:11;12.60;99.90
3628;DHT22;1830;49.000;12.074;2023-05-29T04:33:39;12.60;99.90
3628;DHT22;1830;49.000;12.074;2023-05-29T04:36:08;12.70;99.90
3628;DHT22;1830;49.000;12.074;2023-05-29T04:38:36;12.70;99.90
3628;DHT22;1830;49.000;12.074;2023-05-29T04:41:03;12.70;99.90
3628;DHT22;1830;49.000;12.074;2023-05-29T04:43:30;12.80;99.90
3628;DHT22;1830;49.000;12.074;2023-05-29T04:45:57;12.80;99.90
3628;DHT22;1830;49.000;12.074;2023-05-29T04:48:25;12.80;99.90
3628;DHT22;1830;49.000;12.074;2023-05-29T04:50:52;12.90;99.90
3628;DHT22;1830;49.000;12.074;2023-05-29T04:53:20;12.90;99.90
3628;DHT22;1830;49.000;12.074;2023-05-29T04:55:49;13.00;99.90
3628;DHT22;1830;49.000;12.074;2023-05-29T04:58:16;13.00;99.90
3628;DHT22;1830;49.000;12.074;2023-05-29T05:00:42;13.00;99.90
3628;DHT22;1830;49.000;12.074;2023-05-29T05:03:09;13.00;99.90
3628;DHT22;1830;49.000;12.074;2023-05-29T05:05:36;13.10;99.90
3628;DHT22;1830;49.000;12.074;2023-05-29T05:08:03;13.10;99.90
3628;DHT22;1830;49.000;12.074;2023-05-29T05:10:31;13.20;99.90
3628;DHT22;1830;49.000;12.074;2023-05-29T05:12:58;13.20;99.90
3628;DHT22;1830;49.000;12.074;2023-05-29T05:15:25;13.20;99.90
3628;DHT22;1830;49.000;12.074;2023-05-29T05:17:52;13.20;99.90
3628;DHT22;1830;49.000;12.074;2023-05-29T05:20:19;13.30;99.90
3628;DHT22;1830;49.000;12.074;2023-05-29T05:22:46;13.30;99.90
3628;DHT22;1830;49.000;12.074;2023-05-29T05:25:12;13.40;99.90
3628;DHT22;1830;49.000;12.074;2023-05-29T05:27:41;13.40;99.90
3628;DHT22;1830;49.000;12.074;2023-05-29T05:30:08;13.50;99.90
3628;DHT22;1830;49.000;12.074;2023-05-29T05:32:35;13.50;99.90
3628;DHT22;1830;49.000;12.074;2023-05-29T05:35:02;13.60;99.90
3628;DHT22;1830;49.000;12.074;2023-05-29T05:37:29;13.60;99.90
3628;DHT22;1830;49.000;12.074;2023-05-29T05:39:56;13.70;99.90
3628;DHT22;1830;49.000;12.074;2023-05-29T05:42:23;13.70;99.90
3628;DHT22;1830;49.000;12.074;2023-05-29T05:44:52;13.80;99.90
3628;DHT22;1830;49.000;12.074;2023-05-29T05:47:19;13.80;99.90
3628;DHT22;1830;49.000;12.074;2023-05-29T05:49:46;13.80;99.90
3628;DHT22;1830;49.000;12.074;2023-05-29T05:52:14;13.80;99.90
3628;DHT22;1830;49.000;12.074;2023-05-29T05:54:42;13.90;99.90
3628;DHT22;1830;49.000;12.074;2023-05-29T05:57:09;13.90;99.90
3628;DHT22;1830;49.000;12.074;2023-05-29T05:59:35;14.00;99.80
3628;DHT22;1830;49.000;12.074;2023-05-29T06:02:04;14.10;99.90
3628;DHT22;1830;49.000;12.074;2023-05-29T06:04:31;14.10;99.90
3628;DHT22;1830;49.000;12.074;2023-05-29T06:06:57;14.20;99.90
3628;DHT22;1830;49.000;12.074;2023-05-29T06:09:24;14.20;99.90
3628;DHT22;1830;49.000;12.074;2023-05-29T06:11:51;14.30;99.60
3628;DHT22;1830;49.000;12.074;2023-05-29T06:14:18;14.40;99.70
3628;DHT22;1830;49.000;12.074;2023-05-29T06:16:45;14.40;99.30
3628;DHT22;1830;49.000;12.074;2023-05-29T06:19:14;14.40;99.10
3628;DHT22;1830;49.000;12.074;2023-05-29T06:21:40;14.50;98.90
3628;DHT22;1830;49.000;12.074;2023-05-29T06:24:07;14.60;99.10
3628;DHT22;1830;49.000;12.074;2023-05-29T06:26:35;14.60;98.90
3628;DHT22;1830;49.000;12.074;2023-05-29T06:29:02;14.80;98.60
3628;DHT22;1830;49.000;12.074;2023-05-29T06:31:31;14.80;98.90
3628;DHT22;1830;49.000;12.074;2023-05-29T06:33:58;14.90;98.60
3628;DHT22;1830;49.000;12.074;2023-05-29T06:36:26;14.90;98.40
3628;DHT22;1830;49.000;12.074;2023-05-29T06:38:53;15.00;98.40
3628;DHT22;1830;49.000;12.074;2023-05-29T06:41:20;15.00;98.40
3628;DHT22;1830;49.000;12.074;2023-05-29T06:43:47;15.10;98.20
3628;DHT22;1830;49.000;12.074;2023-05-29T06:46:15;15.20;98.20
3628;DHT22;1830;49.000;12.074;2023-05-29T06:48:41;15.20;98.20
3628;DHT22;1830;49.000;12.074;2023-05-29T06:51:09;15.30;98.10
3628;DHT22;1830;49.000;12.074;2023-05-29T06:53:38;15.40;98.10
3628;DHT22;1830;49.000;12.074;2023-05-29T06:56:05;15.40;98.20
3628;DHT22;1830;49.000;12.074;2023-05-29T06:58:32;15.40;98.10
3628;DHT22;1830;49.000;12.074;2023-05-29T07:00:59;15.50;98.00
3628;DHT22;1830;49.000;12.074;2023-05-29T07:03:26;15.60;97.60
3628;DHT22;1830;49.000;12.074;2023-05-29T07:05:53;15.60;97.90
3628;DHT22;1830;49.000;12.074;2023-05-29T07:08:20;15.70;97.70
3628;DHT22;1830;49.000;12.074;2023-05-29T07:10:48;15.80;98.00
3628;DHT22;1830;49.000;12.074;2023-05-29T07:13:16;15.80;97.50
3628;DHT22;1830;49.000;12.074;2023-05-29T07:15:43;15.90;97.70
3628;DHT22;1830;49.000;12.074;2023-05-29T07:18:10;16.00;97.80
3628;DHT22;1830;49.000;12.074;2023-05-29T07:20:37;16.10;97.50
3628;DHT22;1830;49.000;12.074;2023-05-29T07:23:03;16.10;97.60
3628;DHT22;1830;49.000;12.074;2023-05-29T07:25:30;16.20;98.00
3628;DHT22;1830;49.000;12.074;2023-05-29T07:27:59;16.30;97.40
3628;DHT22;1830;49.000;12.074;2023-05-29T07:30:25;16.40;96.80
3628;DHT22;1830;49.000;12.074;2023-05-29T07:32:52;16.50;96.50
3628;DHT22;1830;49.000;12.074;2023-05-29T07:35:19;16.60;96.80
3628;DHT22;1830;49.000;12.074;2023-05-29T07:37:46;16.60;96.70
3628;DHT22;1830;49.000;12.074;2023-05-29T07:40:15;16.70;96.50
3628;DHT22;1830;49.000;12.074;2023-05-29T07:42:42;16.80;96.80
3628;DHT22;1830;49.000;12.074;2023-05-29T07:45:10;16.90;96.70
3628;DHT22;1830;49.000;12.074;2023-05-29T07:47:37;17.00;95.80
3628;DHT22;1830;49.000;12.074;2023-05-29T07:50:06;17.00;95.60
3628;DHT22;1830;49.000;12.074;2023-05-29T07:52:33;17.20;93.90
3628;DHT22;1830;49.000;12.074;2023-05-29T07:55:00;17.30;93.60
3628;DHT22;1830;49.000;12.074;2023-05-29T07:57:27;17.30;93.50
3628;DHT22;1830;49.000;12.074;2023-05-29T07:59:54;17.40;93.90
3628;DHT22;1830;49.000;12.074;2023-05-29T08:02:22;17.50;93.80
3628;DHT22;1830;49.000;12.074;2023-05-29T08:04:49;17.60;93.60
3628;DHT22;1830;49.000;12.074;2023-05-29T08:07:16;17.70;93.10
3628;DHT22;1830;49.000;12.074;2023-05-29T08:09:43;17.70;92.80
3628;DHT22;1830;49.000;12.074;2023-05-29T08:12:09;17.80;93.30
3628;DHT22;1830;49.000;12.074;2023-05-29T08:14:36;17.90;93.20
3628;DHT22;1830;49.000;12.074;2023-05-29T08:17:03;18.00;92.50
3628;DHT22;1830;49.000;12.074;2023-05-29T08:19:32;18.00;92.00
3628;DHT22;1830;49.000;12.074;2023-05-29T08:21:58;18.10;92.00
3628;DHT22;1830;49.000;12.074;2023-05-29T08:24:25;18.20;91.80
3628;DHT22;1830;49.000;12.074;2023-05-29T08:26:53;18.30;91.20
3628;DHT22;1830;49.000;12.074;2023-05-29T08:29:23;18.30;90.90
3628;DHT22;1830;49.000;12.074;2023-05-29T08:31:49;18.30;91.30
3628;DHT22;1830;49.000;12.074;2023-05-29T08:34:16;18.40;91.30
3628;DHT22;1830;49.000;12.074;2023-05-29T08:36:44;18.50;91.50
3628;DHT22;1830;49.000;12.074;2023-05-29T08:39:11;18.60;91.00
3628;DHT22;1830;49.000;12.074;2023-05-29T08:41:44;18.60;90.30
3628;DHT22;1830;49.000;12.074;2023-05-29T08:44:14;18.60;89.40
3628;DHT22;1830;49.000;12.074;2023-05-29T08:46:41;18.80;90.20
3628;DHT22;1830;49.000;12.074;2023-05-29T08:49:10;18.80;90.20
3628;DHT22;1830;49.000;12.074;2023-05-29T08:51:43;18.90;90.00
3628;DHT22;1830;49.000;12.074;2023-05-29T08:54:16;19.00;88.50
3628;DHT22;1830;49.000;12.074;2023-05-29T08:56:43;19.00;88.40
3628;DHT22;1830;49.000;12.074;2023-05-29T08:59:11;19.10;88.20
3628;DHT22;1830;49.000;12.074;2023-05-29T09:01:38;19.20;87.50
3628;DHT22;1830;49.000;12.074;2023-05-29T09:04:05;19.20;87.70
3628;DHT22;1830;49.000;12.074;2023-05-29T09:06:33;19.40;88.30
3628;DHT22;1830;49.000;12.074;2023-05-29T09:09:02;19.30;87.70
3628;DHT22;1830;49.000;12.074;2023-05-29T09:11:30;19.30;86.80
3628;DHT22;1830;49.000;12.074;2023-05-29T09:13:57;19.40;87.20
3628;DHT22;1830;49.000;12.074;2023-05-29T09:16:25;19.50;88.10
3628;DHT22;1830;49.000;12.074;2023-05-29T09:18:52;19.50;88.10
3628;DHT22;1830;49.000;12.074;2023-05-29T09:21:26;19.50;86.10
3628;DHT22;1830;49.000;12.074;2023-05-29T09:23:54;19.60;86.00
3628;DHT22;1830;49.000;12.074;2023-05-29T09:27:00;19.70;84.50
3628;DHT22;1830;49.000;12.074;2023-05-29T09:29:26;19.70;83.90
3628;DHT22;1830;49.000;12.074;2023-05-29T09:31:53;19.80;83.20
3628;DHT22;1830;49.000;12.074;2023-05-29T09:34:23;19.80;83.20
3628;DHT22;1830;49.000;12.074;2023-05-29T09:36:52;19.80;81.70
3628;DHT22;1830;49.000;12.074;2023-05-29T09:39:18;19.80;82.60
3628;DHT22;1830;49.000;12.074;2023-05-29T09:41:46;19.90;81.90
3628;DHT22;1830;49.000;12.074;2023-05-29T09:44:15;20.00;81.30
3628;DHT22;1830;49.000;12.074;2023-05-29T09:46:42;20.00;78.30
3628;DHT22;1830;49.000;12.074;2023-05-29T09:49:13;20.10;79.10
3628;DHT22;1830;49.000;12.074;2023-05-29T09:51:42;20.20;78.50
3628;DHT22;1830;49.000;12.074;2023-05-29T09:54:14;20.20;77.70
3628;DHT22;1830;49.000;12.074;2023-05-29T09:56:42;20.20;77.30
3628;DHT22;1830;49.000;12.074;2023-05-29T09:59:12;20.20;76.90
3628;DHT22;1830;49.000;12.074;2023-05-29T10:01:40;20.30;76.70
3628;DHT22;1830;49.000;12.074;2023-05-29T10:04:09;20.50;76.30
3628;DHT22;1830;49.000;12.074;2023-05-29T10:06:37;20.50;74.00
3628;DHT22;1830;49.000;12.074;2023-05-29T10:09:06;20.50;72.80
3628;DHT22;1830;49.000;12.074;2023-05-29T10:11:37;20.60;73.40
3628;DHT22;1830;49.000;12.074;2023-05-29T10:14:05;20.70;72.20
3628;DHT22;1830;49.000;12.074;2023-05-29T10:16:35;20.70;73.90
3628;DHT22;1830;49.000;12.074;2023-05-29T10:19:06;20.70;74.00
3628;DHT22;1830;49.000;12.074;2023-05-29T10:21:37;20.80;74.10
3628;DHT22;1830;49.000;12.074;2023-05-29T10:24:07;20.90;74.00
3628;DHT22;1830;49.000;12.074;2023-05-29T10:26:38;21.10;73.80
3628;DHT22;1830;49.000;12.074;2023-05-29T10:29:10;21.10;73.80
3628;DHT22;1830;49.000;12.074;2023-05-29T10:31:46;21.10;72.80
3628;DHT22;1830;49.000;12.074;2023-05-29T10:34:22;21.20;71.50
3628;DHT22;1830;49.000;12.074;2023-05-29T10:37:01;21.30;70.20
3628;DHT22;1830;49.000;12.074;2023-05-29T10:39:31;21.30;70.40
3628;DHT22;1830;49.000;12.074;2023-05-29T10:41:59;21.40;71.90
3628;DHT22;1830;49.000;12.074;2023-05-29T10:44:39;21.50;71.60
3628;DHT22;1830;49.000;12.074;2023-05-29T10:47:08;21.70;69.80
3628;DHT22;1830;49.000;12.074;2023-05-29T10:49:37;21.70;69.20
3628;DHT22;1830;49.000;12.074;2023-05-29T10:52:05;21.80;69.20
3628;DHT22;1830;49.000;12.074;2023-05-29T10:54:49;21.80;69.20
3628;DHT22;1830;49.000;12.074;2023-05-29T10:57:18;21.90;67.40
3628;DHT22;1830;49.000;12.074;2023-05-29T10:59:47;21.90;66.60
3628;DHT22;1830;49.000;12.074;2023-05-29T11:02:18;22.00;67.30
3628;DHT22;1830;49.000;12.074;2023-05-29T11:05:22;22.20;69.20
3628;DHT22;1830;49.000;12.074;2023-05-29T11:07:57;22.40;69.80
3628;DHT22;1830;49.000;12.074;2023-05-29T11:10:56;22.50;68.20
3628;DHT22;1830;49.000;12.074;2023-05-29T11:13:24;22.60;68.40
3628;DHT22;1830;49.000;12.074;2023-05-29T11:16:19;22.60;67.50
3628;DHT22;1830;49.000;12.074;2023-05-29T11:18:48;22.70;69.20
3628;DHT22;1830;49.000;12.074;2023-05-29T11:21:31;22.80;68.40
3628;DHT22;1830;49.000;12.074;2023-05-29T11:24:00;22.90;68.80
3628;DHT22;1830;49.000;12.074;2023-05-29T11:26:29;23.00;69.10
3628;DHT22;1830;49.000;12.074;2023-05-29T11:28:59;23.30;68.90
3628;DHT22;1830;49.000;12.074;2023-05-29T11:31:27;23.40;68.00
3628;DHT22;1830;49.000;12.074;2023-05-29T11:34:00;23.40;68.50
3628;DHT22;1830;49.000;12.074;2023-05-29T11:36:30;23.50;66.70
3628;DHT22;1830;49.000;12.074;2023-05-29T11:38:58;23.60;65.60
3628;DHT22;1830;49.000;12.074;2023-05-29T11:41:25;23.80;64.90
3628;DHT22;1830;49.000;12.074;2023-05-29T11:43:59;23.70;62.20
3628;DHT22;1830;49.000;12.074;2023-05-29T11:46:27;23.80;63.30
3628;DHT22;1830;49.000;12.074;2023-05-29T11:48:58;23.80;64.90
3628;DHT22;1830;49.000;12.074;2023-05-29T11:51:25;23.90;65.70
3628;DHT22;1830;49.000;12.074;2023-05-29T11:53:53;23.90;65.10
3628;DHT22;1830;49.000;12.074;2023-05-29T11:56:23;24.00;64.80
3628;DHT22;1830;49.000;12.074;2023-05-29T11:58:51;24.10;64.40
3628;DHT22;1830;49.000;12.074;2023-05-29T12:01:21;24.10;63.90
3628;DHT22;1830;49.000;12.074;2023-05-29T12:03:49;24.10;62.60
3628;DHT22;1830;49.000;12.074;2023-05-29T12:06:30;24.10;61.60
3628;DHT22;1830;49.000;12.074;2023-05-29T12:08:57;24.30;61.50
3628;DHT22;1830;49.000;12.074;2023-05-29T12:11:24;24.50;63.40
3628;DHT22;1830;49.000;12.074;2023-05-29T12:13:56;24.60;62.90
3628;DHT22;1830;49.000;12.074;2023-05-29T12:16:23;24.70;60.80
3628;DHT22;1830;49.000;12.074;2023-05-29T12:18:51;24.70;59.20
3628;DHT22;1830;49.000;12.074;2023-05-29T12:21:29;24.90;60.30
3628;DHT22;1830;49.000;12.074;2023-05-29T12:24:07;24.80;59.40
3628;DHT22;1830;49.000;12.074;2023-05-29T12:27:03;24.80;60.70
3628;DHT22;1830;49.000;12.074;2023-05-29T12:29:33;25.00;61.40
3628;DHT22;1830;49.000;12.074;2023-05-29T12:32:00;25.20;59.50
3628;DHT22;1830;49.000;12.074;2023-05-29T12:34:27;25.20;59.10
3628;DHT22;1830;49.000;12.074;2023-05-29T12:37:06;25.30;59.80
3628;DHT22;1830;49.000;12.074;2023-05-29T12:39:34;25.40;59.80
3628;DHT22;1830;49.000;12.074;2023-05-29T12:42:01;25.40;58.70
3628;DHT22;1830;49.000;12.074;2023-05-29T12:44:29;25.50;59.40
3628;DHT22;1830;49.000;12.074;2023-05-29T12:46:56;25.60;60.30
3628;DHT22;1830;49.000;12.074;2023-05-29T12:49:23;25.60;59.70
3628;DHT22;1830;49.000;12.074;2023-05-29T12:51:52;25.60;59.20
3628;DHT22;1830;49.000;12.074;2023-05-29T12:54:20;25.70;60.00
3628;DHT22;1830;49.000;12.074;2023-05-29T12:56:47;25.70;59.50
3628;DHT22;1830;49.000;12.074;2023-05-29T12:59:16;25.80;57.00
3628;DHT22;1830;49.000;12.074;2023-05-29T13:01:43;25.80;55.30
3628;DHT22;1830;49.000;12.074;2023-05-29T13:04:10;25.70;56.10
3628;DHT22;1830;49.000;12.074;2023-05-29T13:06:38;25.80;55.90
3628;DHT22;1830;49.000;12.074;2023-05-29T13:09:05;26.00;57.50
3628;DHT22;1830;49.000;12.074;2023-05-29T13:11:34;25.90;58.30
3628;DHT22;1830;49.000;12.074;2023-05-29T13:14:02;25.90;58.40
3628;DHT22;1830;49.000;12.074;2023-05-29T13:16:29;25.90;58.70
3628;DHT22;1830;49.000;12.074;2023-05-29T13:18:55;26.10;59.50
3628;DHT22;1830;49.000;12.074;2023-05-29T13:21:22;26.10;59.10
3628;DHT22;1830;49.000;12.074;2023-05-29T13:23:49;26.20;58.70
3628;DHT22;1830;49.000;12.074;2023-05-29T13:26:16;26.20;58.70
3628;DHT22;1830;49.000;12.074;2023-05-29T13:28:44;26.30;58.90
3628;DHT22;1830;49.000;12.074;2023-05-29T13:31:11;26.40;58.50
3628;DHT22;1830;49.000;12.074;2023-05-29T13:33:37;26.40;57.00
3628;DHT22;1830;49.000;12.074;2023-05-29T13:36:05;26.40;57.70
3628;DHT22;1830;49.000;12.074;2023-05-29T13:38:32;26.50;58.00
3628;DHT22;1830;49.000;12.074;2023-05-29T13:40:59;26.60;58.70
3628;DHT22;1830;49.000;12.074;2023-05-29T13:43:26;26.60;59.00
3628;DHT22;1830;49.000;12.074;2023-05-29T13:45:54;26.60;58.30
3628;DHT22;1830;49.000;12.074;2023-05-29T13:48:21;26.50;56.10
3628;DHT22;1830;49.000;12.074;2023-05-29T13:50:48;26.60;56.60
3628;DHT22;1830;49.000;12.074;2023-05-29T13:53:14;26.60;55.90
3628;DHT22;1830;49.000;12.074;2023-05-29T13:55:41;26.60;56.00
3628;DHT22;1830;49.000;12.074;2023-05-29T13:58:08;26.60;57.00
3628;DHT22;1830;49.000;12.074;2023-05-29T14:00:35;26.40;56.30
3628;DHT22;1830;49.000;12.074;2023-05-29T14:03:03;26.50;56.30
3628;DHT22;1830;49.000;12.074;2023-05-29T14:05:30;26.60;57.10
3628;DHT22;1830;49.000;12.074;2023-05-29T14:07:56;26.60;55.60
3628;DHT22;1830;49.000;12.074;2023-05-29T14:10:23;26.40;56.70
3628;DHT22;1830;49.000;12.074;2023-05-29T14:12:50;26.50;57.30
3628;DHT22;1830;49.000;12.074;2023-05-29T14:15:17;26.60;57.20
3628;DHT22;1830;49.000;12.074;2023-05-29T14:17:44;26.60;57.20
3628;DHT22;1830;49.000;12.074;2023-05-29T14:20:12;26.70;57.60
3628;DHT22;1830;49.000;12.074;2023-05-29T14:22:39;26.70;58.10
3628;DHT22;1830;49.000;12.074;2023-05-29T14:25:06;26.50;56.70
3628;DHT22;1830;49.000;12.074;2023-05-29T14:27:33;26.50;56.70
3628;DHT22;1830;49.000;12.074;2023-05-29T14:30:00;26.50;56.00
3628;DHT22;1830;49.000;12.074;2023-05-29T14:32:27;26.50;55.50
3628;DHT22;1830;49.000;12.074;2023-05-29T14:34:54;26.60;55.20
3628;DHT22;1830;49.000;12.074;2023-05-29T14:37:24;26.60;54.80
3628;DHT22;1830;49.000;12.074;2023-05-29T14:39:51;26.50;54.80
3628;DHT22;1830;49.000;12.074;2023-05-29T14:42:18;26.40;54.10
3628;DHT22;1830;49.000;12.074;2023-05-29T14:44:44;26.30;51.70
3628;DHT22;1830;49.000;12.074;2023-05-29T14:47:11;26.30;51.60
3628;DHT22;1830;49.000;12.074;2023-05-29T14:49:38;26.30;51.30
3628;DHT22;1830;49.000;12.074;2023-05-29T14:52:05;26.20;51.20
3628;DHT22;1830;49.000;12.074;2023-05-29T14:54:34;26.20;51.90
3628;DHT22;1830;49.000;12.074;2023-05-29T14:57:01;26.10;52.50
3628;DHT22;1830;49.000;12.074;2023-05-29T14:59:27;25.90;53.00
3628;DHT22;1830;49.000;12.074;2023-05-29T15:01:54;25.80;53.90
3628;DHT22;1830;49.000;12.074;2023-05-29T15:04:24;25.90;54.00
3628;DHT22;1830;49.000;12.074;2023-05-29T15:06:50;25.90;53.50
3628;DHT22;1830;49.000;12.074;2023-05-29T15:09:19;25.70;53.00
3628;DHT22;1830;49.000;12.074;2023-05-29T15:11:47;25.60;52.80
3628;DHT22;1830;49.000;12.074;2023-05-29T15:14:14;25.40;53.40
3628;DHT22;1830;49.000;12.074;2023-05-29T15:16:42;25.50;53.50
3628;DHT22;1830;49.000;12.074;2023-05-29T15:19:09;25.50;54.90
3628;DHT22;1830;49.000;12.074;2023-05-29T15:21:37;25.30;54.00
3628;DHT22;1830;49.000;12.074;2023-05-29T15:24:04;25.30;54.20
3628;DHT22;1830;49.000;12.074;2023-05-29T15:26:31;25.40;54.20
3628;DHT22;1830;49.000;12.074;2023-05-29T15:28:59;25.30;53.50
3628;DHT22;1830;49.000;12.074;2023-05-29T15:31:26;25.40;53.10
3628;DHT22;1830;49.000;12.074;2023-05-29T15:33:52;25.30;53.40
3628;DHT22;1830;49.000;12.074;2023-05-29T15:36:20;25.20;53.40
3628;DHT22;1830;49.000;12.074;2023-05-29T15:38:47;25.20;53.10
3628;DHT22;1830;49.000;12.074;2023-05-29T15:41:13;25.10;53.50
3628;DHT22;1830;49.000;12.074;2023-05-29T15:43:41;25.10;53.70
3628;DHT22;1830;49.000;12.074;2023-05-29T15:46:09;25.00;53.50
3628;DHT22;1830;49.000;12.074;2023-05-29T15:48:36;25.10;52.90
3628;DHT22;1830;49.000;12.074;2023-05-29T15:51:03;25.00;54.10
3628;DHT22;1830;49.000;12.074;2023-05-29T15:53:29;25.10;54.10